Terminal Aerodrome Forecast
Issued by NWS

Home | Current Version | Previous Version | Text Only | Print | Product List | Glossary On
Versions: 1 2 3 4 5 6 7 8 9 10 11 12 13 14 15 16 17 18 19 20 21 22 23
000
FTUS43 KDMX 032342
TAFMCW
TAF
KMCW 032342Z 0400/0424 18016G22KT P6SM BKN070
     FM040100 05007KT 2SM TSRA SCT015 BKN030CB
     FM040500 03008KT 4SM -SHRA OVC030
     FM040700 04009KT P6SM BKN050
     FM041900 07011KT P6SM OVC060
     FM042200 06007KT 5SM -SHRA OVC030=

USA.gov is the U.S. government's official web portal to all federal, state and local government web resources and services.